createdAt,value
2022-10-19T00:00:30.748Z,18.62
2022-10-19T00:02:57.287Z,19.58
2022-10-19T00:05:23.814Z,22.25
2022-10-19T00:07:50.335Z,18.67
2022-10-19T00:10:16.919Z,21.23
2022-10-19T00:12:43.494Z,18.80
2022-10-19T00:15:10.275Z,21.75
2022-10-19T00:17:36.808Z,18.83
2022-10-19T00:20:03.648Z,18.73
2022-10-19T00:22:30.316Z,20.50
2022-10-19T00:24:57.860Z,20.17
2022-10-19T00:27:24.401Z,16.98
2022-10-19T00:29:51.005Z,20.92
2022-10-19T00:32:17.553Z,17.65
2022-10-19T00:34:44.097Z,18.12
2022-10-19T00:37:10.759Z,19.87
2022-10-19T00:39:37.461Z,16.73
2022-10-19T00:42:03.995Z,19.37
2022-10-19T00:44:30.434Z,18.58
2022-10-19T00:47:02.114Z,19.30
2022-10-19T00:49:30.182Z,20.65
2022-10-19T00:52:04.860Z,21.62
2022-10-19T00:54:32.302Z,18.45
2022-10-19T00:56:58.846Z,18.75
2022-10-19T00:59:25.883Z,20.37
2022-10-19T01:01:52.588Z,23.85
2022-10-19T01:04:20.900Z,20.27
2022-10-19T01:06:47.475Z,23.98
2022-10-19T01:09:14.058Z,20.65
2022-10-19T01:12:07.616Z,24.08
2022-10-19T01:14:49.139Z,22.92
2022-10-19T01:17:34.503Z,21.25
2022-10-19T01:20:28.210Z,21.98
2022-10-19T01:23:19.075Z,20.37
2022-10-19T01:26:14.503Z,21.20
2022-10-19T01:29:02.895Z,22.50
2022-10-19T01:31:41.459Z,17.33
2022-10-19T01:34:10.825Z,15.52
2022-10-19T01:36:54.114Z,20.48
2022-10-19T01:39:29.242Z,20.40
2022-10-19T01:42:07.719Z,22.58
2022-10-19T01:44:42.383Z,18.10
2022-10-19T01:47:11.107Z,15.27
2022-10-19T01:49:49.928Z,20.52
2022-10-19T01:52:18.229Z,15.38
2022-10-19T01:54:47.034Z,18.35
2022-10-19T01:57:14.624Z,16.12
2022-10-19T01:59:41.153Z,15.60
2022-10-19T02:02:07.858Z,17.92
2022-10-19T02:04:34.433Z,13.68
2022-10-19T02:07:01.084Z,14.52
2022-10-19T02:09:27.614Z,15.07
2022-10-19T02:11:59.083Z,21.45
2022-10-19T02:14:29.096Z,17.37
2022-10-19T02:17:17.209Z,18.23
2022-10-19T02:19:43.803Z,18.02
2022-10-19T02:22:10.510Z,17.30
2022-10-19T02:24:37.029Z,18.00
2022-10-19T02:27:05.489Z,18.37
2022-10-19T02:29:33.083Z,19.35
2022-10-19T02:31:59.971Z,22.80
2022-10-19T02:34:26.533Z,16.98
2022-10-19T02:36:53.390Z,18.50
2022-10-19T02:39:20.010Z,23.73
2022-10-19T02:41:57.045Z,15.52
2022-10-19T02:44:30.136Z,14.20
2022-10-19T02:47:30.901Z,16.37
2022-10-19T02:49:57.536Z,17.27
2022-10-19T02:52:24.059Z,17.95
2022-10-19T02:54:50.599Z,17.52
2022-10-19T02:57:19.009Z,22.25
2022-10-19T02:59:45.779Z,21.55
2022-10-19T03:02:13.146Z,21.98
2022-10-19T03:04:41.582Z,19.80
2022-10-19T03:07:12.280Z,15.75
2022-10-19T03:09:38.820Z,18.73
2022-10-19T03:12:05.500Z,18.35
2022-10-19T03:14:32.028Z,17.95
2022-10-19T03:16:58.568Z,21.05
2022-10-19T03:19:25.213Z,14.90
2022-10-19T03:21:51.745Z,18.75
2022-10-19T03:24:18.254Z,17.08
2022-10-19T03:26:44.813Z,19.15
2022-10-19T03:29:11.340Z,18.55
2022-10-19T03:31:37.872Z,18.58
2022-10-19T03:34:04.394Z,17.50
2022-10-19T03:36:36.951Z,18.08
2022-10-19T03:39:08.186Z,19.40
2022-10-19T03:41:35.363Z,19.10
2022-10-19T03:44:02.127Z,17.12
2022-10-19T03:46:28.699Z,17.47
2022-10-19T03:48:55.235Z,16.58
2022-10-19T03:51:26.454Z,17.10
2022-10-19T03:53:53.775Z,17.55
2022-10-19T03:56:21.698Z,17.52
2022-10-19T03:58:48.767Z,17.50
2022-10-19T04:01:16.077Z,18.60
2022-10-19T04:03:42.810Z,18.27
2022-10-19T04:06:11.415Z,18.35
2022-10-19T04:08:37.941Z,17.65
2022-10-19T04:11:14.334Z,18.42
2022-10-19T04:13:40.987Z,16.30
2022-10-19T04:16:08.016Z,16.60
2022-10-19T04:18:34.565Z,17.50
2022-10-19T04:21:02.587Z,19.42
2022-10-19T04:23:33.594Z,18.25
2022-10-19T04:26:07.208Z,16.05
2022-10-19T04:28:34.345Z,15.70
2022-10-19T04:31:04.640Z,16.77
2022-10-19T04:33:31.411Z,19.87
2022-10-19T04:36:01.726Z,20.10
2022-10-19T04:38:28.934Z,16.37
2022-10-19T04:40:56.126Z,15.75
2022-10-19T04:43:25.158Z,16.08
2022-10-19T04:45:51.686Z,15.07
2022-10-19T04:48:18.212Z,16.35
2022-10-19T04:50:44.745Z,17.15
2022-10-19T04:53:11.351Z,20.30
2022-10-19T04:55:43.991Z,22.35
2022-10-19T04:58:10.628Z,15.80
2022-10-19T05:00:40.244Z,15.00
2022-10-19T05:03:06.810Z,17.25
2022-10-19T05:05:33.486Z,20.55
2022-10-19T05:08:00.112Z,19.52
2022-10-19T05:10:26.683Z,14.48
2022-10-19T05:12:53.208Z,17.87
2022-10-19T05:15:19.759Z,17.98
2022-10-19T05:17:46.303Z,18.48
2022-10-19T05:20:13.377Z,18.65
2022-10-19T05:22:40.094Z,19.30
2022-10-19T05:25:07.346Z,17.35
2022-10-19T05:27:34.155Z,18.92
2022-10-19T05:30:00.904Z,15.32
2022-10-19T05:32:28.154Z,25.83
2022-10-19T05:34:54.734Z,20.50
2022-10-19T05:37:21.745Z,17.48
2022-10-19T05:39:48.268Z,15.95
2022-10-19T05:42:14.825Z,17.62
2022-10-19T05:44:41.397Z,17.02
2022-10-19T05:47:08.104Z,18.37
2022-10-19T05:49:34.679Z,14.30
2022-10-19T05:52:02.289Z,21.85
2022-10-19T05:54:29.184Z,16.77
2022-10-19T05:56:55.905Z,19.03
2022-10-19T05:59:23.648Z,16.20
2022-10-19T06:04:23.614Z,17.23
2022-10-19T06:06:54.212Z,18.90
2022-10-19T06:09:20.938Z,15.02
2022-10-19T06:11:49.032Z,22.98
2022-10-19T06:14:15.852Z,14.05
2022-10-19T06:16:42.796Z,13.67
2022-10-19T06:19:09.355Z,12.77
2022-10-19T06:21:35.943Z,12.90
2022-10-19T06:24:04.823Z,14.07
2022-10-19T06:26:32.659Z,15.38
2022-10-19T06:29:00.664Z,12.98
2022-10-19T06:31:28.434Z,13.00
2022-10-19T06:33:55.992Z,10.65
2022-10-19T06:36:24.182Z,13.20
2022-10-19T06:38:50.789Z,12.90
2022-10-19T06:41:17.501Z,13.30
2022-10-19T06:43:44.590Z,10.73
2022-10-19T06:46:20.400Z,11.93
2022-10-19T06:48:54.536Z,12.45
2022-10-19T06:51:21.299Z,11.20
2022-10-19T06:53:48.971Z,10.25
2022-10-19T06:56:17.214Z,10.68
2022-10-19T06:58:43.950Z,11.95
2022-10-19T07:01:11.874Z,11.55
2022-10-19T07:03:38.548Z,12.73
2022-10-19T07:06:07.125Z,11.80
2022-10-19T07:08:33.723Z,8.77
2022-10-19T07:11:02.091Z,9.80
2022-10-19T07:13:29.369Z,11.10
2022-10-19T07:16:08.043Z,8.85
2022-10-19T07:18:35.616Z,12.05
2022-10-19T07:21:03.831Z,11.52
2022-10-19T07:23:32.888Z,8.50
2022-10-19T07:26:03.963Z,11.32
2022-10-19T07:28:30.957Z,11.07
2022-10-19T07:30:57.611Z,12.98
2022-10-19T07:33:24.467Z,9.48
2022-10-19T07:35:51.206Z,10.95
2022-10-19T07:38:17.809Z,11.82
2022-10-19T07:40:47.281Z,9.65
2022-10-19T07:43:14.201Z,11.73
2022-10-19T07:45:40.764Z,8.73
2022-10-19T07:48:07.381Z,9.87
2022-10-19T07:50:33.926Z,10.50
2022-10-19T07:53:00.520Z,15.07
2022-10-19T07:55:27.172Z,14.57
2022-10-19T07:57:53.888Z,14.02
2022-10-19T08:00:20.538Z,20.35
2022-10-19T08:03:05.145Z,12.07
2022-10-19T08:05:33.988Z,10.63
2022-10-19T08:08:00.576Z,10.60
2022-10-19T08:10:27.342Z,12.40
2022-10-19T08:12:53.976Z,13.05
2022-10-19T08:15:20.541Z,9.98
2022-10-19T08:17:47.188Z,13.37
2022-10-19T08:20:13.810Z,9.07
2022-10-19T08:22:41.847Z,9.03
2022-10-19T08:25:08.618Z,10.98
2022-10-19T08:32:29.091Z,13.25
2022-10-19T08:34:55.727Z,11.73
2022-10-19T08:37:40.372Z,9.43
2022-10-19T08:40:17.772Z,12.37
2022-10-19T08:43:13.346Z,9.65
2022-10-19T08:45:43.144Z,10.13
2022-10-19T08:48:24.954Z,6.18
2022-10-19T08:50:51.655Z,10.02
2022-10-19T08:53:32.441Z,7.75
2022-10-19T08:56:06.697Z,7.65
2022-10-19T08:58:51.892Z,9.82
2022-10-19T09:01:41.319Z,11.38
2022-10-19T09:04:37.658Z,7.12
2022-10-19T09:07:30.758Z,7.35
2022-10-19T09:10:28.646Z,7.20
2022-10-19T09:12:59.241Z,7.12
2022-10-19T09:15:40.207Z,7.30
2022-10-19T09:18:26.040Z,9.07
2022-10-19T09:21:16.408Z,7.28
2022-10-19T09:24:00.145Z,5.95
2022-10-19T09:26:29.464Z,6.65
2022-10-19T09:29:06.923Z,7.53
2022-10-19T09:31:39.635Z,6.05
2022-10-19T09:34:12.161Z,10.05
2022-10-19T09:36:50.962Z,5.62
2022-10-19T09:39:17.792Z,5.18
2022-10-19T09:41:49.697Z,7.65
2022-10-19T09:44:17.046Z,6.62
2022-10-19T09:47:01.885Z,5.72
2022-10-19T09:49:42.595Z,7.12
2022-10-19T09:52:33.692Z,5.55
2022-10-19T09:55:04.055Z,5.97
2022-10-19T09:57:30.944Z,5.22
2022-10-19T09:59:57.708Z,4.75
2022-10-19T10:02:31.793Z,6.77
2022-10-19T10:05:14.022Z,6.62
2022-10-19T10:07:40.757Z,4.53
2022-10-19T10:10:55.240Z,6.72
2022-10-19T10:13:24.604Z,5.53
2022-10-19T10:15:59.760Z,9.13
2022-10-19T10:18:26.484Z,9.98
2022-10-19T10:21:13.542Z,6.05
2022-10-19T10:23:40.255Z,4.15
2022-10-19T10:26:19.819Z,6.93
2022-10-19T10:28:48.105Z,4.75
2022-10-19T10:31:15.300Z,6.03
2022-10-19T10:33:45.471Z,8.07
2022-10-19T10:36:12.606Z,6.25
2022-10-19T10:38:45.075Z,6.37
2022-10-19T10:41:19.190Z,3.12
2022-10-19T10:43:56.756Z,3.47
2022-10-19T10:46:27.402Z,3.58
2022-10-19T10:49:19.302Z,3.00
2022-10-19T10:51:50.732Z,3.03
2022-10-19T10:54:31.385Z,5.25
2022-10-19T10:57:19.277Z,3.10
2022-10-19T11:00:21.435Z,5.57
2022-10-19T11:02:57.664Z,3.22
2022-10-19T11:05:24.242Z,2.35
2022-10-19T11:07:54.983Z,2.53
2022-10-19T11:10:26.627Z,3.67
2022-10-19T11:13:02.087Z,4.68
2022-10-19T11:15:33.534Z,4.35
2022-10-19T11:18:31.351Z,3.55
2022-10-19T11:21:20.257Z,3.78
2022-10-19T11:26:49.163Z,3.12
2022-10-19T11:29:37.044Z,3.15
2022-10-19T11:32:03.750Z,10.27
2022-10-19T11:34:45.114Z,2.83
2022-10-19T11:37:49.430Z,3.17
2022-10-19T11:40:27.084Z,2.12
2022-10-19T11:43:24.872Z,2.87
2022-10-19T11:46:06.501Z,3.05
2022-10-19T11:48:35.597Z,4.10
2022-10-19T11:51:44.119Z,6.25
2022-10-19T11:54:29.646Z,6.28
2022-10-19T11:57:27.291Z,2.90
2022-10-19T12:00:38.099Z,4.50
2022-10-19T12:03:13.175Z,2.50
2022-10-19T12:05:58.547Z,3.53
2022-10-19T12:08:37.496Z,3.50
2022-10-19T12:11:03.963Z,2.65
2022-10-19T12:13:40.981Z,4.55
2022-10-19T12:16:08.060Z,3.12
2022-10-19T12:18:48.634Z,6.22
2022-10-19T12:21:17.987Z,4.90
2022-10-19T12:23:44.579Z,2.55
2022-10-19T12:26:14.521Z,8.65
2022-10-19T12:28:44.162Z,1.65
2022-10-19T12:31:10.858Z,3.00
2022-10-19T12:33:38.329Z,2.23
2022-10-19T12:36:50.205Z,5.72
2022-10-19T12:39:22.810Z,3.60
2022-10-19T12:41:56.208Z,3.45
2022-10-19T12:45:00.214Z,2.10
2022-10-19T12:47:28.072Z,3.97
2022-10-19T12:49:58.547Z,2.95
2022-10-19T12:52:52.606Z,2.30
2022-10-19T12:55:25.017Z,4.32
2022-10-19T12:58:19.935Z,3.45
2022-10-19T13:00:58.024Z,3.17
2022-10-19T13:03:27.597Z,5.50
2022-10-19T13:05:58.470Z,2.90
2022-10-19T13:08:30.584Z,4.70
2022-10-19T13:11:08.515Z,2.42
2022-10-19T13:13:53.593Z,2.97
2022-10-19T13:16:29.409Z,4.25
2022-10-19T13:19:14.098Z,3.08
2022-10-19T13:21:46.708Z,3.42
2022-10-19T13:24:25.032Z,4.20
2022-10-19T13:29:56.466Z,4.70
2022-10-19T13:32:45.496Z,3.37
2022-10-19T13:35:31.528Z,2.20
2022-10-19T13:38:10.319Z,3.37
2022-10-19T13:40:37.926Z,7.82
2022-10-19T13:45:30.855Z,2.30
2022-10-19T13:48:10.536Z,3.00
2022-10-19T13:50:41.845Z,3.92
2022-10-19T13:53:20.305Z,3.95
2022-10-19T13:55:49.652Z,7.85
2022-10-19T13:58:34.986Z,4.37
2022-10-19T14:01:23.821Z,6.85
2022-10-19T14:03:56.716Z,3.03
2022-10-19T14:06:28.415Z,3.95
2022-10-19T14:09:22.993Z,7.37
2022-10-19T14:11:51.445Z,6.25
2022-10-19T14:14:20.303Z,5.53
2022-10-19T14:16:59.648Z,10.52
2022-10-19T14:19:34.148Z,4.57
2022-10-19T14:22:01.532Z,4.45
2022-10-19T14:24:30.669Z,7.22
2022-10-19T14:27:00.108Z,6.40
2022-10-19T14:29:26.651Z,5.72
2022-10-19T14:31:53.991Z,5.80
2022-10-19T14:34:20.575Z,8.27
2022-10-19T14:36:48.040Z,4.55
2022-10-19T14:39:43.959Z,8.80
2022-10-19T14:42:10.885Z,6.60
2022-10-19T14:44:42.722Z,5.70
2022-10-19T14:47:22.175Z,4.90
2022-10-19T14:49:49.470Z,3.33
2022-10-19T14:52:31.256Z,2.92
2022-10-19T14:54:57.792Z,4.00
2022-10-19T14:57:32.311Z,5.47
2022-10-19T15:00:00.842Z,4.57
2022-10-19T15:02:40.879Z,4.00
2022-10-19T15:05:18.336Z,4.53
2022-10-19T15:07:44.874Z,4.20
2022-10-19T15:10:30.239Z,4.28
2022-10-19T15:13:03.178Z,6.12
2022-10-19T15:15:31.179Z,4.60
2022-10-19T15:18:00.723Z,4.07
2022-10-19T15:20:44.251Z,4.15
2022-10-19T15:23:45.839Z,4.97
2022-10-19T15:26:19.570Z,4.12
2022-10-19T15:28:46.393Z,4.65
2022-10-19T15:31:26.370Z,4.63
2022-10-19T15:33:54.906Z,5.62
2022-10-19T15:36:21.910Z,6.37
2022-10-19T15:38:50.009Z,4.03
2022-10-19T15:41:28.707Z,6.45
2022-10-19T15:44:04.192Z,4.72
2022-10-19T15:46:32.676Z,8.55
2022-10-19T15:49:17.564Z,6.30
2022-10-19T15:51:45.659Z,4.37
2022-10-19T15:54:13.054Z,6.97
2022-10-19T15:56:39.905Z,5.80
2022-10-19T15:59:11.386Z,5.70
2022-10-19T16:01:38.154Z,7.05
2022-10-19T16:04:04.897Z,6.73
2022-10-19T16:06:32.273Z,4.05
2022-10-19T16:08:59.184Z,6.45
2022-10-19T16:11:26.034Z,7.90
2022-10-19T16:13:52.624Z,6.77
2022-10-19T16:16:22.283Z,5.97
2022-10-19T16:18:48.889Z,7.07
2022-10-19T16:21:15.429Z,5.07
2022-10-19T16:23:42.286Z,6.07
2022-10-19T16:26:08.979Z,5.20
2022-10-19T16:28:35.499Z,10.15
2022-10-19T16:31:02.035Z,4.90
2022-10-19T16:33:28.575Z,5.10
2022-10-19T16:35:55.147Z,5.65
2022-10-19T16:38:21.718Z,6.30
2022-10-19T16:40:48.236Z,7.37
2022-10-19T16:43:14.771Z,3.95
2022-10-19T16:45:44.437Z,4.70
2022-10-19T16:48:12.169Z,9.27
2022-10-19T16:53:07.118Z,5.97
2022-10-19T16:55:33.664Z,6.22
2022-10-19T16:58:00.188Z,6.30
2022-10-19T17:00:26.763Z,6.10
2022-10-19T17:02:53.295Z,5.62
2022-10-19T17:05:19.850Z,12.45
2022-10-19T17:07:46.576Z,5.07
2022-10-19T17:10:13.194Z,10.80
2022-10-19T17:12:40.758Z,7.25
2022-10-19T17:17:55.594Z,5.80
2022-10-19T17:22:51.283Z,6.20
2022-10-19T17:25:17.821Z,6.87
2022-10-19T17:27:44.349Z,7.10
2022-10-19T17:30:11.109Z,4.03
2022-10-19T17:32:37.767Z,7.35
2022-10-19T17:35:04.779Z,8.47
2022-10-19T17:37:31.342Z,4.97
2022-10-19T17:39:57.916Z,7.10
2022-10-19T17:42:24.668Z,8.13
2022-10-19T17:44:51.202Z,5.22
2022-10-19T17:47:17.741Z,9.50
2022-10-19T17:49:44.270Z,7.18
2022-10-19T17:52:10.836Z,4.95
2022-10-19T17:54:48.541Z,6.25
2022-10-19T17:57:20.971Z,5.03
2022-10-19T17:59:52.764Z,6.70
2022-10-19T18:02:19.715Z,5.87
2022-10-19T18:04:46.247Z,7.93
2022-10-19T18:07:12.768Z,5.12
2022-10-19T18:09:39.361Z,8.00
2022-10-19T18:12:07.539Z,7.32
2022-10-19T18:14:34.250Z,5.57
2022-10-19T18:17:00.831Z,7.65
2022-10-19T18:19:27.364Z,7.68
2022-10-19T18:21:53.932Z,8.00
2022-10-19T18:24:21.419Z,7.12
2022-10-19T18:26:48.831Z,6.60
2022-10-19T18:29:16.968Z,5.37
2022-10-19T18:31:43.501Z,5.20
2022-10-19T18:34:13.985Z,6.43
2022-10-19T18:36:40.572Z,5.72
2022-10-19T18:39:07.610Z,7.65
2022-10-19T18:41:34.164Z,7.60
2022-10-19T18:44:03.169Z,6.87
2022-10-19T18:46:29.733Z,5.10
2022-10-19T18:48:56.277Z,4.72
2022-10-19T18:51:23.029Z,7.28
2022-10-19T18:53:49.649Z,8.23
2022-10-19T18:56:17.648Z,6.82
2022-10-19T18:58:44.257Z,7.78
2022-10-19T19:01:11.860Z,4.15
2022-10-19T19:03:39.429Z,6.87
2022-10-19T19:06:10.937Z,7.15
2022-10-19T19:08:37.593Z,5.97
2022-10-19T19:11:23.768Z,4.72
2022-10-19T19:13:58.092Z,7.30
2022-10-19T19:16:24.659Z,5.97
2022-10-19T19:18:51.284Z,6.40
2022-10-19T19:21:28.206Z,5.18
2022-10-19T19:23:55.224Z,6.60
2022-10-19T19:26:23.179Z,5.25
2022-10-19T19:28:51.759Z,5.35
2022-10-19T19:31:18.556Z,6.65
2022-10-19T19:33:45.373Z,5.35
2022-10-19T19:36:12.606Z,8.07
2022-10-19T19:38:39.150Z,6.35
2022-10-19T19:41:06.579Z,8.77
2022-10-19T19:43:33.431Z,6.75
2022-10-19T19:46:03.309Z,6.05
2022-10-19T19:48:32.882Z,5.97
2022-10-19T19:50:59.438Z,3.92
2022-10-19T19:53:26.018Z,4.75
2022-10-19T19:55:52.560Z,5.80
2022-10-19T19:58:19.123Z,6.22
2022-10-19T20:00:46.025Z,5.55
2022-10-19T20:03:13.294Z,9.67
2022-10-19T20:05:42.852Z,7.15
2022-10-19T20:08:09.543Z,4.07
2022-10-19T20:10:40.153Z,4.18
2022-10-19T20:13:06.714Z,4.47
2022-10-19T20:15:33.275Z,3.72
2022-10-19T20:17:59.794Z,5.37
2022-10-19T20:20:26.357Z,5.12
2022-10-19T20:22:53.008Z,6.93
2022-10-19T20:25:19.562Z,4.90
2022-10-19T20:27:46.085Z,4.68
2022-10-19T20:30:12.610Z,5.30
2022-10-19T20:32:39.166Z,5.37
2022-10-19T20:35:07.355Z,8.23
2022-10-19T20:37:33.923Z,4.35
2022-10-19T20:40:02.361Z,4.68
2022-10-19T20:42:31.048Z,5.53
2022-10-19T20:44:57.581Z,4.90
2022-10-19T20:47:24.112Z,6.37
2022-10-19T20:49:50.731Z,5.25
2022-10-19T20:52:17.329Z,6.43
2022-10-19T20:54:43.884Z,7.32
2022-10-19T20:57:10.393Z,4.80
2022-10-19T20:59:38.733Z,7.60
2022-10-19T21:02:05.281Z,5.28
2022-10-19T21:04:31.839Z,4.53
2022-10-19T21:06:58.412Z,6.43
2022-10-19T21:09:26.026Z,8.43
2022-10-19T21:11:52.740Z,5.87
2022-10-19T21:14:27.009Z,5.32
2022-10-19T21:16:58.655Z,5.90
2022-10-19T21:19:26.446Z,5.82
2022-10-19T21:24:26.896Z,3.78
2022-10-19T21:26:53.520Z,6.55
2022-10-19T21:29:20.129Z,5.28
2022-10-19T21:31:49.106Z,4.32
2022-10-19T21:34:26.027Z,6.07
2022-10-19T21:36:52.579Z,3.95
2022-10-19T21:39:19.229Z,6.72
2022-10-19T21:41:45.986Z,4.47
2022-10-19T21:44:12.603Z,5.00
2022-10-19T21:46:39.273Z,10.70
2022-10-19T21:49:05.820Z,5.53
2022-10-19T21:51:33.822Z,5.25
2022-10-19T21:54:00.834Z,3.97
2022-10-19T21:56:27.541Z,4.82
2022-10-19T21:58:54.260Z,5.70
2022-10-19T22:01:25.506Z,6.53
2022-10-19T22:04:01.910Z,6.15
2022-10-19T22:06:29.181Z,4.60
2022-10-19T22:08:55.783Z,5.20
2022-10-19T22:11:22.383Z,4.25
2022-10-19T22:13:48.975Z,5.78
2022-10-19T22:16:19.901Z,4.97
2022-10-19T22:18:47.282Z,3.95
2022-10-19T22:21:17.451Z,7.20
2022-10-19T22:23:44.882Z,7.12
2022-10-19T22:26:18.795Z,9.85
2022-10-19T22:28:45.415Z,4.37
2022-10-19T22:31:12.258Z,5.07
2022-10-19T22:33:38.907Z,5.85
2022-10-19T22:36:07.491Z,5.22
2022-10-19T22:38:34.237Z,6.70
2022-10-19T22:41:57.393Z,4.75
2022-10-19T22:44:23.939Z,5.32
2022-10-19T22:46:50.483Z,4.37
2022-10-19T22:49:17.042Z,4.10
2022-10-19T22:51:43.642Z,3.33
2022-10-19T22:54:10.241Z,4.87
2022-10-19T22:56:36.959Z,4.05
2022-10-19T22:59:04.368Z,4.60
2022-10-19T23:01:31.012Z,3.97
2022-10-19T23:03:57.792Z,5.05
2022-10-19T23:06:24.338Z,7.15
2022-10-19T23:08:50.890Z,4.35
2022-10-19T23:11:17.668Z,4.43
2022-10-19T23:13:44.207Z,5.37
2022-10-19T23:16:10.758Z,5.47
2022-10-19T23:18:38.449Z,4.43
2022-10-19T23:21:06.685Z,6.47
2022-10-19T23:23:33.530Z,4.82
2022-10-19T23:26:04.014Z,4.10
2022-10-19T23:28:30.855Z,5.70
2022-10-19T23:30:58.587Z,6.30
2022-10-19T23:35:52.206Z,6.82
2022-10-19T23:38:18.863Z,5.37
2022-10-19T23:40:45.421Z,9.98
2022-10-19T23:43:12.159Z,7.50
2022-10-19T23:45:39.285Z,5.15
2022-10-19T23:48:05.857Z,5.30
2022-10-19T23:50:32.411Z,3.05
2022-10-19T23:52:58.933Z,3.67
2022-10-19T23:55:25.459Z,5.47
2022-10-19T23:57:51.988Z,5.43
